»·PEaware :: WAT234 KSNA-KPHX

WAT234 :: KSNA-KPHX

FLIGHT INFORMATION

Flight Status: Arrived
Operator:
Walker Air Transport
More flights by this operator :: More flights under this callsign
Pilot: Eduardo Elias G. (24838)
Aircraft: BOEING 747-400 (WINGLETS)
(B744)
More flights by this aircraft type
Origin: KSNA John Wayne-Orange Co
United States
Destination: KPHX Phoenix Sky Harbor Intl
United States
More flights between these airports :: More routes between these airports
Route: PIGGN2 CNERY BLH HYDRR1
File this flight plan on PilotEdge
Remarks:
Altitude:
(Current/Filed)
37,000ft
Speed:
(Current/Filed)
460kts
Departed: 17-Aug-20 08:32 PM
Arrived: 17-Aug-20 09:21 PM
Distance/Time
Traveled:
294nm/0:49
Distance/Time
To Go:
Arrived

Flight Plot

Page will automatically refresh every two minutes.

Flight plan parsing failed; only flown route is shown


Map Options




Map Legend


Flown Route
Filed Route
Departure Airport
Arrival Airport
Navaid (VOR, NDB)
Fix

Horizontal Profiles

Position Reports

Time Latitude Longitude Heading Altitude Ground
Speed
17-Aug-20 19:57 33.673354 -117.872964 301 69ft 0kts
17-Aug-20 19:58 33.673354 -117.872964 301 69ft 0kts
17-Aug-20 19:59 33.673354 -117.872964 301 69ft 0kts
17-Aug-20 20:00 33.673354 -117.872964 301 69ft 0kts
17-Aug-20 20:01 33.673354 -117.872964 301 69ft 0kts
17-Aug-20 20:02 33.673354 -117.872964 301 69ft 0kts
17-Aug-20 20:03 33.673354 -117.872964 301 69ft 0kts
17-Aug-20 20:03 33.673354 -117.872964 301 69ft 0kts
17-Aug-20 20:05 33.673354 -117.872964 301 69ft 0kts
17-Aug-20 20:06 33.673354 -117.872964 301 69ft 0kts
17-Aug-20 20:06 33.673354 -117.872964 301 69ft 0kts
17-Aug-20 20:07 33.673354 -117.872964 301 69ft 0kts
17-Aug-20 20:09 33.673354 -117.872964 301 69ft 0kts
17-Aug-20 20:09 33.673354 -117.872964 301 69ft 0kts
17-Aug-20 20:10 33.673354 -117.872964 301 69ft 0kts
17-Aug-20 20:12 33.673354 -117.872964 301 69ft 0kts
17-Aug-20 20:12 33.673354 -117.872964 301 69ft 0kts
17-Aug-20 20:13 33.673354 -117.872964 301 69ft 0kts
17-Aug-20 20:14 33.673354 -117.872964 301 69ft 0kts
17-Aug-20 20:15 33.673354 -117.872964 301 69ft 0kts
17-Aug-20 20:16 33.673354 -117.872964 301 69ft 0kts
17-Aug-20 20:17 33.673354 -117.872964 301 69ft 0kts
17-Aug-20 20:18 33.673354 -117.872964 301 69ft 0kts
17-Aug-20 20:19 33.673354 -117.872964 301 69ft 0kts
17-Aug-20 20:20 33.673354 -117.872964 301 69ft 0kts
17-Aug-20 20:21 33.673354 -117.872964 301 69ft 0kts
17-Aug-20 20:22 33.673189 -117.872606 296 69ft 2kts
17-Aug-20 20:23 33.672723 -117.872220 23 69ft 2kts
17-Aug-20 20:24 33.672515 -117.872340 27 69ft 0kts
17-Aug-20 20:25 33.672515 -117.872340 27 69ft 0kts
17-Aug-20 20:26 33.672515 -117.872340 27 69ft 0kts
17-Aug-20 20:27 33.675259 -117.870640 27 69ft 29kts
17-Aug-20 20:28 33.681942 -117.866495 68 69ft 13kts
17-Aug-20 20:29 33.681948 -117.866124 104 69ft 0kts
17-Aug-20 20:30 33.681189 -117.865280 213 69ft 0kts
17-Aug-20 20:31 33.652403 -117.885076 209 2522ft 174kts
17-Aug-20 20:32 33.594398 -117.894814 186 4529ft 264kts
17-Aug-20 20:33 33.545108 -117.837479 94 7881ft 291kts
17-Aug-20 20:34 33.554691 -117.738174 83 11193ft 316kts
17-Aug-20 20:35 33.568219 -117.618680 83 13180ft 387kts
17-Aug-20 20:36 33.575549 -117.488965 89 17118ft 397kts
17-Aug-20 20:37 33.577866 -117.353648 89 20426ft 417kts
17-Aug-20 20:38 33.580202 -117.210901 90 23231ft 439kts
17-Aug-20 20:39 33.582491 -117.061063 90 25850ft 458kts
17-Aug-20 20:40 33.584638 -116.909014 90 28122ft 475kts
17-Aug-20 20:41 33.586702 -116.748609 89 30520ft 480kts
17-Aug-20 20:42 33.588564 -116.588088 89 32692ft 482kts
17-Aug-20 20:43 33.590218 -116.426979 89 34506ft 485kts
17-Aug-20 20:44 33.591665 -116.266004 88 36320ft 482kts
17-Aug-20 20:45 33.592924 -116.103330 88 36800ft 498kts
17-Aug-20 20:46 33.594004 -115.932846 88 36807ft 523kts
17-Aug-20 20:47 33.594888 -115.756326 88 36821ft 530kts
17-Aug-20 20:48 33.595521 -115.579709 88 36813ft 529kts
17-Aug-20 20:49 33.595909 -115.403565 88 36819ft 528kts
17-Aug-20 20:50 33.596053 -115.227034 88 36828ft 527kts
17-Aug-20 20:51 33.596590 -115.051439 88 36842ft 526kts
17-Aug-20 20:52 33.596267 -114.877810 88 36674ft 503kts
17-Aug-20 20:53 33.588070 -114.715632 99 34492ft 478kts
17-Aug-20 20:54 33.557646 -114.563584 102 32259ft 458kts
17-Aug-20 20:55 33.529238 -114.417896 101 30116ft 438kts
17-Aug-20 20:56 33.502009 -114.278843 101 28008ft 420kts
17-Aug-20 20:57 33.475397 -114.145336 101 25901ft 404kts
17-Aug-20 20:58 33.449775 -114.017023 101 24970ft 392kts
17-Aug-20 20:59 33.424370 -113.890844 101 23730ft 381kts
17-Aug-20 21:00 33.400071 -113.768654 101 22051ft 376kts
17-Aug-20 21:01 33.375581 -113.648062 101 20822ft 369kts
17-Aug-20 21:02 33.351406 -113.529930 101 19612ft 362kts
17-Aug-20 21:03 33.328893 -113.413935 99 18366ft 353kts
17-Aug-20 21:04 33.309316 -113.298847 99 17240ft 350kts
17-Aug-20 21:05 33.290795 -113.185944 97 16138ft 345kts
17-Aug-20 21:06 33.275367 -113.074497 94 15072ft 325kts
17-Aug-20 21:07 33.276654 -112.973176 86 13929ft 299kts
17-Aug-20 21:08 33.279237 -112.874943 87 12269ft 293kts
17-Aug-20 21:09 33.295006 -112.780603 67 10741ft 292kts
17-Aug-20 21:10 33.329110 -112.691872 66 10339ft 301kts
17-Aug-20 21:11 33.365808 -112.595872 67 8809ft 318kts
17-Aug-20 21:12 33.399175 -112.508118 67 8159ft 260kts
17-Aug-20 21:13 33.426204 -112.429043 80 7206ft 240kts
17-Aug-20 21:14 33.427648 -112.351592 91 5623ft 245kts
17-Aug-20 21:15 33.426689 -112.272210 91 3849ft 221kts
17-Aug-20 21:16 33.425656 -112.205044 90 3467ft 175kts
17-Aug-20 21:17 33.428388 -112.149340 86 3106ft 158kts
17-Aug-20 21:18 33.428901 -112.097570 90 2290ft 157kts
17-Aug-20 21:19 33.428834 -112.044937 90 1442ft 155kts
17-Aug-20 21:20 33.428906 -112.008980 76 1148ft 21kts
17-Aug-20 21:21 33.429804 -112.007239 67 1148ft 0kts
17-Aug-20 21:22 33.429804 -112.007237 67 1148ft 0kts
17-Aug-20 21:23 33.429805 -112.007234 67 1148ft 0kts
17-Aug-20 21:24 33.432172 -112.005135 83 1148ft 11kts
17-Aug-20 21:25 33.432023 -112.000566 90 1148ft 0kts
17-Aug-20 21:26 33.432838 -111.994313 90 1148ft 21kts
17-Aug-20 21:27 33.434543 -111.992411 1 1148ft 0kts
17-Aug-20 21:28 33.437094 -111.992374 0 1148ft 20kts
17-Aug-20 21:29 33.438327 -111.993527 225 1148ft 3kts
17-Aug-20 21:30 33.438162 -111.993720 224 1148ft 1kts
17-Aug-20 21:31 33.438133 -111.993753 224 1148ft 0kts
17-Aug-20 21:32 33.438133 -111.993753 224 1148ft 0kts
17-Aug-20 21:33 33.438133 -111.993753 224 1148ft 0kts
17-Aug-20 21:34 33.438133 -111.993753 224 1148ft 0kts
17-Aug-20 21:35 33.438133 -111.993753 224 1148ft 0kts

Navigation Log

Ident Type
Flight plan parsing failed, navigation log unavailable